createdAt,value
2023-04-12T00:01:03.234Z,13.10
2023-04-12T00:03:30.818Z,10.70
2023-04-12T00:06:00.165Z,11.60
2023-04-12T00:08:33.793Z,16.20
2023-04-12T00:11:02.850Z,10.90
2023-04-12T00:13:30.562Z,12.30
2023-04-12T00:15:57.439Z,9.70
2023-04-12T00:18:25.413Z,11.40
2023-04-12T00:20:53.064Z,10.20
2023-04-12T00:23:20.622Z,10.00
2023-04-12T00:25:47.623Z,10.50
2023-04-12T00:28:15.931Z,10.80
2023-04-12T00:30:44.046Z,10.10
2023-04-12T00:33:11.083Z,8.60
2023-04-12T00:35:37.877Z,8.70
2023-04-12T00:38:10.281Z,7.80
2023-04-12T00:40:42.548Z,9.10
2023-04-12T00:43:18.962Z,7.50
2023-04-12T00:45:47.257Z,6.60
2023-04-12T00:48:15.777Z,7.30
2023-04-12T00:50:44.783Z,9.00
2023-04-12T00:53:13.620Z,7.00
2023-04-12T00:55:44.075Z,6.30
2023-04-12T00:58:11.002Z,7.50
2023-04-12T01:00:38.134Z,11.50
2023-04-12T01:03:05.559Z,6.40
2023-04-12T01:05:44.048Z,9.00
2023-04-12T01:08:42.404Z,9.50
2023-04-12T01:11:17.380Z,6.40
2023-04-12T01:13:52.904Z,7.10
2023-04-12T01:16:47.777Z,7.80
2023-04-12T01:19:34.927Z,8.80
2023-04-12T01:22:14.142Z,6.40
2023-04-12T01:24:46.999Z,7.70
2023-04-12T01:27:35.400Z,8.20
2023-04-12T01:30:07.446Z,9.00
2023-04-12T01:32:37.169Z,6.90
2023-04-12T01:35:08.956Z,10.00
2023-04-12T01:37:36.862Z,6.80
2023-04-12T01:40:06.051Z,8.30
2023-04-12T01:42:35.257Z,10.70
2023-04-12T01:45:03.423Z,13.30
2023-04-12T01:47:30.661Z,8.60
2023-04-12T01:50:12.267Z,7.60
2023-04-12T01:52:45.145Z,7.40
2023-04-12T01:55:14.409Z,9.70
2023-04-12T01:57:44.075Z,8.60
2023-04-12T02:00:12.200Z,9.20
2023-04-12T02:02:42.815Z,8.10
2023-04-12T02:05:10.369Z,9.10
2023-04-12T02:07:37.801Z,7.90
2023-04-12T02:10:04.982Z,6.20
2023-04-12T02:12:31.720Z,7.50
2023-04-12T02:14:58.516Z,8.80
2023-04-12T02:17:25.282Z,10.40
2023-04-12T02:19:52.444Z,9.10
2023-04-12T02:22:19.437Z,7.90
2023-04-12T02:24:46.177Z,10.10
2023-04-12T02:27:12.878Z,9.50
2023-04-12T02:29:39.617Z,9.90
2023-04-12T02:32:06.631Z,9.30
2023-04-12T02:34:36.788Z,10.70
2023-04-12T02:37:17.794Z,9.60
2023-04-12T02:39:44.841Z,8.90
2023-04-12T02:42:11.713Z,8.50
2023-04-12T02:44:38.964Z,9.00
2023-04-12T02:47:10.879Z,9.50
2023-04-12T02:49:38.263Z,9.40
2023-04-12T02:52:05.961Z,9.40
2023-04-12T02:54:39.555Z,9.50
2023-04-12T02:57:08.290Z,9.00
2023-04-12T02:59:39.429Z,9.80
2023-04-12T03:02:12.489Z,9.00
2023-04-12T03:04:40.113Z,9.80
2023-04-12T03:07:11.155Z,9.20
2023-04-12T03:10:00.392Z,10.20
2023-04-12T03:12:27.439Z,6.80
2023-04-12T03:15:04.744Z,9.60
2023-04-12T03:17:31.997Z,9.10
2023-04-12T03:20:10.431Z,8.60
2023-04-12T03:22:39.637Z,9.20
2023-04-12T03:25:10.180Z,7.60
2023-04-12T03:27:38.805Z,10.00
2023-04-12T03:30:06.566Z,9.00
2023-04-12T03:32:35.673Z,9.60
2023-04-12T03:35:03.286Z,8.70
2023-04-12T03:37:30.401Z,10.20
2023-04-12T03:39:57.234Z,10.60
2023-04-12T03:42:32.866Z,12.60
2023-04-12T03:45:05.587Z,10.70
2023-04-12T03:47:33.321Z,10.10
2023-04-12T03:50:12.044Z,10.20
2023-04-12T03:52:42.487Z,12.00
2023-04-12T03:55:10.124Z,10.60
2023-04-12T03:57:37.885Z,12.80
2023-04-12T04:00:08.900Z,10.40
2023-04-12T04:02:52.910Z,10.00
2023-04-12T04:05:20.364Z,10.60
2023-04-12T04:07:47.866Z,11.20
2023-04-12T04:10:15.375Z,11.20
2023-04-12T04:12:42.469Z,12.40
2023-04-12T04:15:11.765Z,13.30
2023-04-12T04:17:38.574Z,10.90
2023-04-12T04:20:07.865Z,10.00
2023-04-12T04:22:36.860Z,12.10
2023-04-12T04:25:04.519Z,10.10
2023-04-12T04:27:34.361Z,10.30
2023-04-12T04:30:03.009Z,14.20
2023-04-12T04:32:31.694Z,10.00
2023-04-12T04:35:00.085Z,11.20
2023-04-12T04:37:35.383Z,10.70
2023-04-12T04:40:19.308Z,13.60
2023-04-12T04:42:46.439Z,9.50
2023-04-12T04:45:14.098Z,9.40
2023-04-12T04:47:43.401Z,13.30
2023-04-12T04:50:10.333Z,15.00
2023-04-12T04:52:39.406Z,14.30
2023-04-12T04:55:11.367Z,13.90
2023-04-12T04:57:38.854Z,17.10
2023-04-12T05:00:11.780Z,12.70
2023-04-12T05:02:48.497Z,15.40
2023-04-12T05:05:23.473Z,13.20
2023-04-12T05:07:52.679Z,12.10
2023-04-12T05:10:19.617Z,14.60
2023-04-12T05:12:46.656Z,14.00
2023-04-12T05:15:14.598Z,13.70
2023-04-12T05:17:41.749Z,11.90
2023-04-12T05:20:10.995Z,9.70
2023-04-12T05:22:38.936Z,13.50
2023-04-12T05:25:06.509Z,11.50
2023-04-12T05:27:36.231Z,14.20
2023-04-12T05:30:04.516Z,16.60
2023-04-12T05:32:31.371Z,12.80
2023-04-12T05:34:58.571Z,13.10
2023-04-12T05:37:26.314Z,14.50
2023-04-12T05:39:53.681Z,17.60
2023-04-12T05:42:21.251Z,16.10
2023-04-12T05:44:49.972Z,14.90
2023-04-12T05:47:17.985Z,11.90
2023-04-12T05:49:45.118Z,13.10
2023-04-12T05:52:12.131Z,11.90
2023-04-12T05:54:39.065Z,12.90
2023-04-12T05:57:07.419Z,18.30
2023-04-12T05:59:49.995Z,15.60
2023-04-12T06:02:17.631Z,13.80
2023-04-12T06:04:50.666Z,14.10
2023-04-12T06:07:20.252Z,16.70
2023-04-12T06:09:47.526Z,13.20
2023-04-12T06:12:18.211Z,18.30
2023-04-12T06:14:45.136Z,16.90
2023-04-12T06:17:12.395Z,15.60
2023-04-12T06:19:40.476Z,18.30
2023-04-12T06:22:07.267Z,22.10
2023-04-12T06:24:37.770Z,20.10
2023-04-12T06:27:06.056Z,17.50
2023-04-12T06:29:32.818Z,12.20
2023-04-12T06:32:00.298Z,15.90
2023-04-12T06:34:29.768Z,14.20
2023-04-12T06:37:00.720Z,13.40
2023-04-12T06:39:27.474Z,16.10
2023-04-12T06:41:55.541Z,16.00
2023-04-12T06:44:22.239Z,12.10
2023-04-12T06:46:49.186Z,11.70
2023-04-12T06:49:15.964Z,17.20
2023-04-12T06:51:42.722Z,16.60
2023-04-12T06:54:09.450Z,15.70
2023-04-12T06:56:38.854Z,15.80
2023-04-12T06:59:05.768Z,14.60
2023-04-12T07:01:32.580Z,14.80
2023-04-12T07:03:59.426Z,15.20
2023-04-12T07:06:26.490Z,20.60
2023-04-12T07:08:53.327Z,17.80
2023-04-12T07:11:23.066Z,17.40
2023-04-12T07:13:51.610Z,14.60
2023-04-12T07:16:18.694Z,12.30
2023-04-12T07:18:45.636Z,13.80
2023-04-12T07:21:14.509Z,15.30
2023-04-12T07:23:41.412Z,14.60
2023-04-12T07:26:08.207Z,14.70
2023-04-12T07:28:36.458Z,14.80
2023-04-12T07:31:07.252Z,15.80
2023-04-12T07:33:36.102Z,17.00
2023-04-12T07:36:04.660Z,12.70
2023-04-12T07:38:31.517Z,13.90
2023-04-12T07:40:58.286Z,17.10
2023-04-12T07:43:25.580Z,15.30
2023-04-12T07:45:55.092Z,14.40
2023-04-12T07:48:22.067Z,17.50
2023-04-12T07:50:48.818Z,10.70
2023-04-12T07:53:25.315Z,10.20
2023-04-12T07:55:52.652Z,11.60
2023-04-12T07:58:21.544Z,13.90
2023-04-12T08:00:48.811Z,13.50
2023-04-12T08:03:17.495Z,10.30
2023-04-12T08:05:45.344Z,11.70
2023-04-12T08:08:12.377Z,13.40
2023-04-12T08:10:39.757Z,11.40
2023-04-12T08:13:07.387Z,11.20
2023-04-12T08:15:34.376Z,12.10
2023-04-12T08:18:02.347Z,12.30
2023-04-12T08:20:29.915Z,9.00
2023-04-12T08:22:56.738Z,10.60
2023-04-12T08:25:23.774Z,12.10
2023-04-12T09:38:33.573Z,5.50
2023-04-12T09:41:20.204Z,5.40
2023-04-12T09:43:48.572Z,5.20
2023-04-12T09:46:16.471Z,8.00
2023-04-12T09:48:52.561Z,4.80
2023-04-12T09:51:36.476Z,5.90
2023-04-12T09:56:33.684Z,7.10
2023-04-12T09:59:03.281Z,4.00
2023-04-12T10:01:35.786Z,5.90
2023-04-12T10:04:03.422Z,4.30
2023-04-12T10:06:31.321Z,4.90
2023-04-12T10:08:59.112Z,3.80
2023-04-12T10:11:27.715Z,4.90
2023-04-12T10:13:56.562Z,4.90
2023-04-12T10:16:24.177Z,4.50
2023-04-12T10:18:52.603Z,4.00
2023-04-12T10:21:19.932Z,3.90
2023-04-12T10:23:47.369Z,4.10
2023-04-12T10:26:16.571Z,4.60
2023-04-12T10:28:47.724Z,5.30
2023-04-12T10:31:30.663Z,4.30
2023-04-12T10:33:57.894Z,4.00
2023-04-12T10:36:55.654Z,5.60
2023-04-12T10:39:39.161Z,5.80
2023-04-12T10:42:25.029Z,4.40
2023-04-12T10:44:54.987Z,6.50
2023-04-12T10:47:52.500Z,4.40
2023-04-12T10:50:25.469Z,6.30
2023-04-12T10:53:15.765Z,6.00
2023-04-12T10:55:45.196Z,5.40
2023-04-12T10:58:47.866Z,4.90
2023-04-12T11:01:18.517Z,5.70
2023-04-12T11:04:06.698Z,4.80
2023-04-12T11:06:59.080Z,5.80
2023-04-12T11:09:43.678Z,5.90
2023-04-12T11:12:17.628Z,5.00
2023-04-12T11:14:52.354Z,4.40
2023-04-12T11:17:29.848Z,3.50
2023-04-12T11:19:59.308Z,7.00
2023-04-12T11:22:29.600Z,8.70
2023-04-12T11:24:59.327Z,6.50
2023-04-12T11:27:38.120Z,5.90
2023-04-12T11:30:05.425Z,4.10
2023-04-12T11:32:35.377Z,4.70
2023-04-12T11:35:02.864Z,5.20
2023-04-12T11:37:35.668Z,4.20
2023-04-12T11:40:06.256Z,6.40
2023-04-12T11:42:33.509Z,5.00
2023-04-12T11:45:05.558Z,8.90
2023-04-12T11:47:42.618Z,4.50
2023-04-12T11:50:10.687Z,5.00
2023-04-12T11:52:37.877Z,5.90
2023-04-12T11:55:06.959Z,6.70
2023-04-12T11:57:34.759Z,3.80
2023-04-12T12:00:02.358Z,3.60
2023-04-12T12:02:48.916Z,73.50
2023-04-12T12:05:21.751Z,8.70
2023-04-12T12:07:49.464Z,5.80
2023-04-12T12:10:31.695Z,4.60
2023-04-12T12:13:11.399Z,4.60
2023-04-12T12:15:38.636Z,4.30
2023-04-12T12:18:09.507Z,6.20
2023-04-12T12:20:42.198Z,7.20
2023-04-12T12:23:09.102Z,4.90
2023-04-12T12:25:35.874Z,13.30
2023-04-12T12:28:07.827Z,5.20
2023-04-12T12:30:40.176Z,4.70
2023-04-12T12:33:07.027Z,4.50
2023-04-12T12:35:35.150Z,4.20
2023-04-12T12:38:08.569Z,5.00
2023-04-12T12:40:36.129Z,8.30
2023-04-12T12:43:03.497Z,4.40
2023-04-12T12:45:33.698Z,4.90
2023-04-12T12:48:03.144Z,4.00
2023-04-12T12:50:32.414Z,35.80
2023-04-12T12:53:00.970Z,13.90
2023-04-12T12:55:28.972Z,6.20
2023-04-12T12:58:07.342Z,14.70
2023-04-12T13:00:36.573Z,5.90
2023-04-12T13:03:03.875Z,3.00
2023-04-12T13:05:31.117Z,4.60
2023-04-12T13:07:57.868Z,32.80
2023-04-12T13:10:26.552Z,16.50
2023-04-12T13:12:53.740Z,13.70
2023-04-12T13:15:23.901Z,4.30
2023-04-12T13:17:52.780Z,3.80
2023-04-12T13:20:19.803Z,20.40
2023-04-12T13:22:46.721Z,27.00
2023-04-12T13:25:13.555Z,28.60
2023-04-12T13:27:40.534Z,16.00
2023-04-12T13:30:08.456Z,7.40
2023-04-12T13:32:36.046Z,5.00
2023-04-12T13:35:04.022Z,21.70
2023-04-12T13:37:31.201Z,23.10
2023-04-12T13:39:57.940Z,4.90
2023-04-12T13:42:24.690Z,20.10
2023-04-12T13:44:52.538Z,12.10
2023-04-12T13:47:19.250Z,3.60
2023-04-12T13:49:46.354Z,9.40
2023-04-12T13:52:14.510Z,4.80
2023-04-12T13:54:43.152Z,5.70
2023-04-12T13:57:12.831Z,3.60
2023-04-12T13:59:39.581Z,3.90
2023-04-12T14:02:06.328Z,4.40
2023-04-12T14:04:33.129Z,15.10
2023-04-12T14:07:00.983Z,6.30
2023-04-12T14:09:29.636Z,5.70
2023-04-12T14:11:58.538Z,4.90
2023-04-12T14:14:27.396Z,3.70
2023-04-12T14:16:57.768Z,4.00
2023-04-12T14:19:25.558Z,6.10
2023-04-12T14:21:52.440Z,3.30
2023-04-12T14:24:20.581Z,5.90
2023-04-12T14:26:50.195Z,3.20
2023-04-12T14:29:17.456Z,3.80
2023-04-12T14:31:44.276Z,4.20
2023-04-12T14:34:11.280Z,4.10
2023-04-12T14:36:38.048Z,5.40
2023-04-12T14:39:06.983Z,3.30
2023-04-12T14:41:35.695Z,5.20
2023-04-12T14:44:02.786Z,6.10
2023-04-12T14:46:30.785Z,3.60
2023-04-12T14:48:59.624Z,3.30
2023-04-12T14:51:28.681Z,3.40
2023-04-12T14:53:56.311Z,2.80
2023-04-12T14:56:27.783Z,3.40
2023-04-12T14:58:56.518Z,4.40
2023-04-12T15:01:25.353Z,4.40
2023-04-12T15:03:53.171Z,3.60
2023-04-12T15:06:23.016Z,2.30
2023-04-12T15:08:55.247Z,2.80
2023-04-12T15:11:27.259Z,5.70
2023-04-12T15:13:55.582Z,4.50
2023-04-12T15:16:23.044Z,3.10
2023-04-12T15:18:51.624Z,3.30
2023-04-12T15:21:18.768Z,3.40
2023-04-12T15:23:46.082Z,5.00
2023-04-12T15:26:14.472Z,4.90
2023-04-12T15:28:42.223Z,4.30
2023-04-12T15:31:09.624Z,5.20
2023-04-12T15:33:37.464Z,5.90
2023-04-12T15:36:05.447Z,3.50
2023-04-12T15:38:32.692Z,6.00
2023-04-12T15:41:01.306Z,6.10
2023-04-12T15:43:28.347Z,5.60
2023-04-12T15:45:55.278Z,4.40
2023-04-12T15:48:23.776Z,5.70
2023-04-12T15:50:52.101Z,5.30
2023-04-12T15:53:21.753Z,3.00
2023-04-12T15:55:49.125Z,5.10
2023-04-12T15:58:31.320Z,4.40
2023-04-12T16:00:58.217Z,4.30
2023-04-12T16:03:26.399Z,7.30
2023-04-12T16:05:54.315Z,16.40
2023-04-12T16:08:22.383Z,9.50
2023-04-12T16:10:50.946Z,3.90
2023-04-12T16:13:18.720Z,6.30
2023-04-12T16:15:47.062Z,4.80
2023-04-12T16:18:14.416Z,4.70
2023-04-12T16:20:41.278Z,2.50
2023-04-12T16:23:08.864Z,5.80
2023-04-12T16:25:36.334Z,3.50
2023-04-12T16:28:03.974Z,10.20
2023-04-12T16:30:32.566Z,8.10
2023-04-12T16:32:59.581Z,6.50
2023-04-12T16:35:26.617Z,4.30
2023-04-12T16:37:54.714Z,6.00
2023-04-12T16:40:22.456Z,8.40
2023-04-12T16:42:49.354Z,7.70
2023-04-12T16:45:31.687Z,3.40
2023-04-12T16:47:58.920Z,5.00
2023-04-12T16:50:26.423Z,3.30
2023-04-12T16:52:53.486Z,3.40
2023-04-12T16:55:21.663Z,6.90
2023-04-12T16:57:53.012Z,17.10
2023-04-12T17:00:21.440Z,6.70
2023-04-12T17:02:51.114Z,6.30
2023-04-12T17:05:19.930Z,3.70
2023-04-12T17:07:49.920Z,4.10
2023-04-12T17:10:18.404Z,4.00
2023-04-12T17:12:46.520Z,3.00
2023-04-12T17:15:16.330Z,2.60
2023-04-12T17:17:48.108Z,5.20
2023-04-12T17:20:32.695Z,8.20
2023-04-12T17:23:00.384Z,6.80
2023-04-12T17:25:31.480Z,6.30
2023-04-12T17:28:00.086Z,6.20
2023-04-12T17:30:27.335Z,11.50
2023-04-12T17:32:54.478Z,11.10
2023-04-12T17:35:21.430Z,11.50
2023-04-12T17:37:48.297Z,13.50
2023-04-12T17:40:15.501Z,7.50
2023-04-12T17:42:44.237Z,22.50
2023-04-12T17:45:12.888Z,24.90
2023-04-12T17:47:41.485Z,16.90
2023-04-12T17:50:10.129Z,18.00
2023-04-12T17:52:37.440Z,16.10
2023-04-12T17:55:07.483Z,14.30
2023-04-12T17:57:34.781Z,33.30
2023-04-12T18:00:01.532Z,14.00
2023-04-12T18:02:28.417Z,12.60
2023-04-12T18:05:11.422Z,11.80
2023-04-12T18:07:39.883Z,11.30
2023-04-12T18:10:08.954Z,16.60
2023-04-12T18:12:36.102Z,18.20
2023-04-12T18:15:03.914Z,17.00
2023-04-12T18:17:30.653Z,14.80
2023-04-12T18:19:57.414Z,11.50
2023-04-12T18:22:24.117Z,11.10
2023-04-12T18:24:51.001Z,14.60
2023-04-12T18:27:17.855Z,19.20
2023-04-12T18:29:44.810Z,24.80
2023-04-12T18:32:11.504Z,14.50
2023-04-12T18:34:38.239Z,18.70
2023-04-12T18:37:06.015Z,15.00
2023-04-12T18:39:34.603Z,12.40
2023-04-12T18:42:01.620Z,15.90
2023-04-12T18:44:45.476Z,16.80
2023-04-12T18:47:12.311Z,17.60
2023-04-12T18:49:39.027Z,15.70
2023-04-12T18:52:05.801Z,13.90
2023-04-12T18:54:32.535Z,13.70
2023-04-12T18:57:01.929Z,12.10
2023-04-12T18:59:29.448Z,15.70
2023-04-12T19:02:12.503Z,14.40
2023-04-12T19:04:55.177Z,17.50
2023-04-12T19:07:22.376Z,19.00
2023-04-12T19:09:49.093Z,19.00
2023-04-12T19:12:16.071Z,31.90
2023-04-12T19:14:42.799Z,20.80
2023-04-12T19:17:09.590Z,21.50
2023-04-12T19:19:36.275Z,20.30
2023-04-12T19:22:03.160Z,16.90
2023-04-12T19:24:30.131Z,17.30
2023-04-12T19:26:57.583Z,19.80
2023-04-12T19:29:25.576Z,24.00
2023-04-12T19:31:53.809Z,18.90
2023-04-12T19:34:20.810Z,19.30
2023-04-12T19:36:48.377Z,21.20
2023-04-12T19:39:18.160Z,18.80
2023-04-12T19:41:48.557Z,18.60
2023-04-12T19:44:15.522Z,17.50
2023-04-12T19:46:57.608Z,17.70
2023-04-12T19:49:24.465Z,17.70
2023-04-12T19:51:51.645Z,18.50
2023-04-12T19:54:23.649Z,17.10
2023-04-12T19:56:50.600Z,17.20
2023-04-12T19:59:17.983Z,15.70
2023-04-12T20:01:49.491Z,19.60
2023-04-12T20:04:33.315Z,28.50
2023-04-12T20:07:01.185Z,23.00
2023-04-12T20:09:28.498Z,22.60
2023-04-12T20:11:55.975Z,21.50
2023-04-12T20:14:24.418Z,22.30
2023-04-12T20:16:55.904Z,25.30
2023-04-12T20:19:23.199Z,25.60
2023-04-12T20:21:49.911Z,25.00
2023-04-12T20:24:16.966Z,22.80
2023-04-12T20:26:46.527Z,24.10
2023-04-12T20:29:13.935Z,23.70
2023-04-12T20:31:40.692Z,23.40
2023-04-12T20:34:07.390Z,24.00
2023-04-12T20:36:34.773Z,23.00
2023-04-12T20:39:01.701Z,26.60
2023-04-12T20:41:29.030Z,24.00
2023-04-12T20:43:56.034Z,24.10
2023-04-12T20:46:26.054Z,25.90
2023-04-12T20:48:56.212Z,37.40
2023-04-12T20:51:24.313Z,29.90
2023-04-12T20:53:51.760Z,39.40
2023-04-12T20:56:19.624Z,34.50
2023-04-12T20:58:47.423Z,29.50
2023-04-12T21:01:14.962Z,33.30
2023-04-12T21:03:43.500Z,27.50
2023-04-12T21:06:11.024Z,29.10
2023-04-12T21:08:39.204Z,24.00
2023-04-12T21:11:06.574Z,31.00
2023-04-12T21:13:34.744Z,29.60
2023-04-12T21:16:02.838Z,26.00
2023-04-12T21:18:32.358Z,33.60
2023-04-12T21:21:00.267Z,32.80
2023-04-12T21:23:28.145Z,27.40
2023-04-12T21:25:54.968Z,33.80
2023-04-12T21:28:23.025Z,37.20
2023-04-12T21:30:55.145Z,35.90
2023-04-12T21:33:26.459Z,38.00
2023-04-12T21:35:54.793Z,43.60
2023-04-12T21:38:23.496Z,41.30
2023-04-12T21:40:50.479Z,43.30
2023-04-12T21:43:17.276Z,29.20
2023-04-12T21:45:45.242Z,38.10
2023-04-12T21:48:14.644Z,41.10
2023-04-12T21:50:42.748Z,41.40
2023-04-12T21:53:09.465Z,36.00
2023-04-12T21:55:36.477Z,41.10
2023-04-12T21:58:03.979Z,41.50
2023-04-12T22:00:32.204Z,43.90
2023-04-12T22:03:00.034Z,39.40
2023-04-12T22:05:27.914Z,39.30
2023-04-12T22:07:55.370Z,40.30
2023-04-12T22:10:22.193Z,40.10
2023-04-12T22:12:50.318Z,34.10
2023-04-12T22:15:17.771Z,42.50
2023-04-12T22:17:45.454Z,41.60
2023-04-12T22:20:13.294Z,39.70
2023-04-12T22:22:40.936Z,42.80
2023-04-12T22:25:11.886Z,34.60
2023-04-12T22:27:39.536Z,30.80
2023-04-12T22:30:10.076Z,32.10
2023-04-12T22:32:36.939Z,28.20
2023-04-12T22:35:08.192Z,31.00
2023-04-12T22:37:38.884Z,28.00
2023-04-12T22:40:11.649Z,26.80
2023-04-12T22:42:46.003Z,26.10
2023-04-12T22:47:42.603Z,33.50
2023-04-12T22:50:12.814Z,29.30
2023-04-12T22:52:40.430Z,24.40
2023-04-12T22:55:09.923Z,29.10
2023-04-12T22:57:37.228Z,31.50
2023-04-12T23:00:06.053Z,27.80
2023-04-12T23:02:33.867Z,25.90
2023-04-12T23:05:02.611Z,30.70
2023-04-12T23:07:30.311Z,25.80
2023-04-12T23:09:57.671Z,30.90
2023-04-12T23:12:25.331Z,33.50
2023-04-12T23:14:55.718Z,30.20
2023-04-12T23:17:22.696Z,28.50
2023-04-12T23:19:50.692Z,27.40
2023-04-12T23:22:48.432Z,23.60
2023-04-12T23:25:21.943Z,34.30
2023-04-12T23:27:49.509Z,95.70
2023-04-12T23:30:18.476Z,55.80
2023-04-12T23:32:45.478Z,73.00
2023-04-12T23:35:12.300Z,54.90
2023-04-12T23:37:41.118Z,46.20
2023-04-12T23:40:14.447Z,41.90
2023-04-12T23:42:43.867Z,37.70
2023-04-12T23:45:12.086Z,22.60
2023-04-12T23:47:38.913Z,26.30
2023-04-12T23:50:07.239Z,33.40
2023-04-12T23:52:34.106Z,22.60
2023-04-12T23:55:02.569Z,30.90
2023-04-12T23:57:29.710Z,29.30
2023-04-12T23:59:56.814Z,25.20
